Time;durP1;ratioP1;P1;durP2;ratioP2;P2;SDS_P1;SDS_P2;PMS_P1;PMS_P2;Temp;Humidity;BMP_temperature;BMP_pressure;BME280_temperature;BME280_humidity;BME280_pressure;Samples;Min_cycle;Max_cycle;Signal;HPM_P1;HPM_P2
2021/01/31 00:02:02;;;;;;;8.10;5.75;;;8.40;99.90;;;;;;5088904;28;20394;-76
2021/01/31 00:04:28;;;;;;;8.82;6.60;;;8.80;99.90;;;;;;5090505;28;20378;-75
2021/01/31 00:06:55;;;;;;;8.23;6.30;;;8.60;99.90;;;;;;5071353;28;20792;-75
2021/01/31 00:09:21;;;;;;;7.87;6.50;;;9.50;99.90;;;;;;5090658;28;20385;-75
2021/01/31 00:11:47;;;;;;;7.68;6.30;;;8.40;99.90;;;;;;5090029;28;20400;-76
2021/01/31 00:14:13;;;;;;;8.40;6.27;;;8.90;99.90;;;;;;5090281;28;20375;-75
2021/01/31 00:16:38;;;;;;;7.27;5.60;;;8.40;99.90;;;;;;5090561;28;20392;-75
2021/01/31 00:19:04;;;;;;;9.13;6.03;;;8.00;99.90;;;;;;5089278;28;20409;-75
2021/01/31 00:21:29;;;;;;;8.20;5.93;;;8.20;99.90;;;;;;5090616;28;20397;-75
2021/01/31 00:23:55;;;;;;;9.98;6.80;;;8.90;99.90;;;;;;5089423;28;20374;-76
2021/01/31 00:26:21;;;;;;;12.02;7.50;;;7.90;99.90;;;;;;5090242;28;20378;-76
2021/01/31 00:28:46;;;;;;;8.63;6.70;;;8.50;99.90;;;;;;5089611;28;20381;-78
2021/01/31 00:31:12;;;;;;;9.38;7.20;;;8.90;99.90;;;;;;5090084;28;20374;-76
2021/01/31 00:33:37;;;;;;;9.95;7.97;;;7.80;99.90;;;;;;5090316;28;20447;-76
2021/01/31 00:36:03;;;;;;;9.45;7.03;;;8.40;99.90;;;;;;5089327;28;20410;-76
2021/01/31 00:38:29;;;;;;;11.45;8.38;;;7.30;99.90;;;;;;5089542;28;20406;-76
2021/01/31 00:40:55;;;;;;;8.83;7.20;;;7.90;99.90;;;;;;5089061;28;20386;-77
2021/01/31 00:43:21;;;;;;;9.80;7.43;;;7.20;99.90;;;;;;5072040;28;20390;-76
2021/01/31 00:45:47;;;;;;;11.88;7.97;;;7.30;99.90;;;;;;5091954;28;20378;-77
2021/01/31 00:48:14;;;;;;;10.57;8.18;;;7.40;99.90;;;;;;5093433;28;20424;-76
2021/01/31 00:50:40;;;;;;;11.35;8.05;;;6.80;99.90;;;;;;5093723;28;20370;-76
2021/01/31 00:53:07;;;;;;;9.40;7.63;;;7.30;99.90;;;;;;5093376;28;20508;-76
2021/01/31 00:55:33;;;;;;;9.65;7.57;;;7.50;99.90;;;;;;5094217;28;20424;-76
2021/01/31 00:57:59;;;;;;;12.27;9.00;;;6.90;99.90;;;;;;5093263;28;20386;-76
2021/01/31 01:00:33;;;;;;;11.87;8.30;;;7.60;99.90;;;;;;5094185;28;20384;-76
2021/01/31 01:03:01;;;;;;;11.65;7.85;;;6.60;99.90;;;;;;5093363;28;20412;-76
2021/01/31 01:05:29;;;;;;;11.40;7.90;;;8.10;99.90;;;;;;5094014;28;20374;-76
2021/01/31 01:07:55;;;;;;;8.75;7.60;;;8.10;99.90;;;;;;5093064;28;20381;-76
2021/01/31 01:10:24;;;;;;;8.53;7.40;;;7.30;99.90;;;;;;5094013;28;20370;-75
2021/01/31 01:12:50;;;;;;;9.55;7.30;;;6.70;99.90;;;;;;5093325;28;20377;-77
2021/01/31 01:15:18;;;;;;;9.13;6.70;;;7.10;99.90;;;;;;5093678;28;20374;-76
2021/01/31 01:17:44;;;;;;;10.20;7.30;;;7.20;99.90;;;;;;5094042;28;20429;-76
2021/01/31 01:20:11;;;;;;;8.73;6.50;;;6.20;99.90;;;;;;5092922;28;21004;-76
2021/01/31 01:22:37;;;;;;;7.70;5.90;;;6.20;99.90;;;;;;5094056;28;20896;-76
2021/01/31 01:25:05;;;;;;;10.23;6.50;;;6.50;99.90;;;;;;5092462;28;20374;-76
2021/01/31 01:27:31;;;;;;;9.65;6.93;;;5.60;99.90;;;;;;5075320;28;20826;-76
2021/01/31 01:29:58;;;;;;;7.45;6.20;;;6.10;99.90;;;;;;5092073;28;20386;-76
2021/01/31 01:32:23;;;;;;;9.30;7.03;;;5.80;99.90;;;;;;5093188;28;20439;-75
2021/01/31 01:34:49;;;;;;;8.70;6.77;;;6.00;99.90;;;;;;5093190;28;20382;-77
2021/01/31 01:37:15;;;;;;;10.30;7.20;;;6.10;99.90;;;;;;5092959;28;20793;-76
2021/01/31 01:39:41;;;;;;;7.97;6.65;;;5.20;99.90;;;;;;5093313;28;20724;-75
2021/01/31 01:42:11;;;;;;;9.80;6.90;;;5.80;99.90;;;;;;5092253;28;20389;-76
2021/01/31 01:44:38;;;;;;;8.77;6.72;;;5.60;99.90;;;;;;5093325;28;20925;-76
2021/01/31 01:47:13;;;;;;;8.73;7.35;;;5.90;99.90;;;;;;5092556;28;20382;-74
2021/01/31 01:49:42;;;;;;;9.82;6.63;;;6.20;99.90;;;;;;5072777;28;20391;-74
2021/01/31 01:52:19;;;;;;;12.02;7.10;;;6.80;99.90;;;;;;5071860;28;20888;-74
2021/01/31 01:54:51;;;;;;;14.80;7.85;;;6.30;99.90;;;;;;5073025;28;20806;-74
2021/01/31 01:57:27;;;;;;;10.50;6.23;;;6.40;99.90;;;;;;5071488;28;20428;-75
2021/01/31 01:59:55;;;;;;;9.90;7.18;;;5.10;99.90;;;;;;5071984;28;20443;-77
2021/01/31 02:02:35;;;;;;;10.93;7.07;;;6.70;99.90;;;;;;5072482;28;20475;-75
2021/01/31 02:05:05;;;;;;;9.27;6.60;;;5.70;99.90;;;;;;5071780;28;20856;-75
2021/01/31 02:07:31;;;;;;;12.18;6.90;;;5.30;99.90;;;;;;5072580;28;20876;-74
2021/01/31 02:09:56;;;;;;;11.68;6.43;;;5.90;99.90;;;;;;5071570;28;20371;-76
2021/01/31 02:12:26;;;;;;;10.50;6.20;;;5.60;99.90;;;;;;5072404;28;20786;-74
2021/01/31 02:14:55;;;;;;;9.97;6.33;;;6.60;99.90;;;;;;5071926;28;20387;-76
2021/01/31 02:17:56;;;;;;;8.05;5.90;;;5.40;99.90;;;;;;5072559;28;20402;-75
2021/01/31 02:20:42;;;;;;;9.20;5.68;;;4.90;99.90;;;;;;5003184;28;20426;-76
2021/01/31 02:23:47;;;;;;;7.00;5.80;;;5.10;99.90;;;;;;5071402;28;20384;-75
2021/01/31 02:26:21;;;;;;;7.70;5.60;;;4.70;99.90;;;;;;5071554;28;20657;-74
2021/01/31 02:28:55;;;;;;;7.50;5.60;;;5.70;99.90;;;;;;5072145;28;20420;-76
2021/01/31 02:31:32;;;;;;;8.63;5.57;;;4.40;99.90;;;;;;5072620;28;20459;-76
2021/01/31 02:34:12;;;;;;;6.97;4.87;;;5.70;99.90;;;;;;5071560;28;20411;-75
2021/01/31 02:37:02;;;;;;;7.38;4.97;;;4.70;99.90;;;;;;5072000;28;20448;-75
2021/01/31 02:39:51;;;;;;;8.52;5.43;;;4.90;99.90;;;;;;5071706;28;20609;-74
2021/01/31 02:42:31;;;;;;;6.65;4.75;;;4.60;99.90;;;;;;5070721;28;20391;-74
2021/01/31 02:45:11;;;;;;;7.30;5.25;;;4.60;99.90;;;;;;5071052;28;20498;-76
2021/01/31 02:47:45;;;;;;;6.90;5.43;;;4.50;99.90;;;;;;5075301;28;20720;-74
2021/01/31 02:50:21;;;;;;;7.88;5.65;;;5.10;99.90;;;;;;5090746;28;20411;-74
2021/01/31 02:53:04;;;;;;;8.18;4.90;;;5.90;99.90;;;;;;5091788;28;20896;-75
2021/01/31 02:55:45;;;;;;;7.40;5.20;;;6.30;99.90;;;;;;5091653;28;20379;-74
2021/01/31 02:58:16;;;;;;;7.38;5.35;;;4.80;99.90;;;;;;5091023;28;20534;-74
2021/01/31 03:00:54;;;;;;;5.65;4.57;;;4.50;99.90;;;;;;5073170;28;20856;-75
2021/01/31 03:03:33;;;;;;;6.95;5.13;;;5.90;99.90;;;;;;5091507;28;20397;-74
2021/01/31 03:06:04;;;;;;;7.30;4.55;;;4.30;99.90;;;;;;5072787;28;20378;-74
2021/01/31 03:08:41;;;;;;;6.57;4.65;;;4.20;99.90;;;;;;5072711;28;20386;-74
2021/01/31 03:11:12;;;;;;;6.90;4.57;;;5.00;99.90;;;;;;5090507;28;20422;-74
2021/01/31 03:13:52;;;;;;;6.90;5.70;;;4.20;99.90;;;;;;5091493;28;20781;-75
2021/01/31 03:16:38;;;;;;;6.18;5.03;;;4.00;99.90;;;;;;5090761;28;20926;-74
2021/01/31 03:19:28;;;;;;;6.75;5.03;;;4.20;99.90;;;;;;5090811;28;20467;-75
2021/01/31 03:21:57;;;;;;;7.10;5.03;;;4.10;99.90;;;;;;5091449;28;20394;-77
2021/01/31 03:24:37;;;;;;;8.60;4.70;;;4.80;99.90;;;;;;5091329;28;20735;-74
2021/01/31 03:27:09;;;;;;;7.20;4.60;;;4.80;99.90;;;;;;5090083;28;20859;-74
2021/01/31 03:29:34;;;;;;;7.80;5.50;;;4.50;99.90;;;;;;5090931;28;20559;-74
2021/01/31 03:32:10;;;;;;;7.97;5.50;;;5.50;99.90;;;;;;5090079;28;20779;-75
2021/01/31 03:34:42;;;;;;;8.23;6.20;;;3.90;99.90;;;;;;5090733;28;20707;-74
2021/01/31 03:37:10;;;;;;;8.52;6.50;;;4.20;99.90;;;;;;5068395;28;20964;-75
2021/01/31 03:39:41;;;;;;;7.63;5.30;;;4.10;99.90;;;;;;5070364;28;20414;-74
2021/01/31 03:42:07;;;;;;;9.20;6.07;;;4.00;99.90;;;;;;5070162;28;20432;-76
2021/01/31 03:44:34;;;;;;;9.45;5.90;;;4.60;99.90;;;;;;5070710;28;20372;-76
2021/01/31 03:47:04;;;;;;;7.88;5.82;;;3.90;99.90;;;;;;5070347;28;20403;-77
2021/01/31 03:49:45;;;;;;;9.17;6.13;;;4.30;99.90;;;;;;5070210;28;20426;-76
2021/01/31 03:52:10;;;;;;;8.10;6.47;;;6.10;99.90;;;;;;5069875;28;20406;-76
2021/01/31 03:54:36;;;;;;;8.07;5.65;;;4.90;99.90;;;;;;5070193;28;20387;-76
2021/01/31 03:57:13;;;;;;;8.90;6.18;;;4.70;99.90;;;;;;5069507;28;20847;-77
2021/01/31 03:59:57;;;;;;;10.02;6.43;;;4.00;99.90;;;;;;5070380;28;20442;-76
2021/01/31 04:02:28;;;;;;;10.35;6.25;;;3.90;99.90;;;;;;5069621;28;20456;-75
2021/01/31 04:04:56;;;;;;;12.60;6.53;;;4.80;99.90;;;;;;5069891;28;20718;-76
2021/01/31 04:07:27;;;;;;;10.23;6.60;;;4.50;99.90;;;;;;5069207;28;21268;-75
2021/01/31 04:09:55;;;;;;;10.50;7.68;;;3.90;99.90;;;;;;5070145;28;20899;-76
2021/01/31 04:12:23;;;;;;;9.93;6.63;;;5.20;99.90;;;;;;5069030;28;20422;-75
2021/01/31 04:15:07;;;;;;;9.70;6.22;;;4.10;99.90;;;;;;5069814;28;20937;-75
2021/01/31 04:17:34;;;;;;;12.35;6.60;;;3.80;99.90;;;;;;5070008;28;20394;-75
2021/01/31 04:19:59;;;;;;;11.18;6.15;;;4.80;99.90;;;;;;5069507;28;20411;-77
2021/01/31 04:22:25;;;;;;;13.57;7.50;;;5.10;99.90;;;;;;5069236;28;20714;-75
2021/01/31 04:24:50;;;;;;;12.20;7.30;;;5.10;99.90;;;;;;5069510;28;20466;-76
2021/01/31 04:27:16;;;;;;;8.10;5.73;;;5.80;99.90;;;;;;5067334;28;20396;-75
2021/01/31 04:29:42;;;;;;;10.60;7.07;;;3.80;99.90;;;;;;5069659;28;20419;-76
2021/01/31 04:32:07;;;;;;;9.07;6.57;;;4.50;99.90;;;;;;5068640;28;20397;-76
2021/01/31 04:34:33;;;;;;;8.93;6.75;;;5.30;99.90;;;;;;5069738;28;20441;-76
2021/01/31 04:36:59;;;;;;;11.55;6.32;;;4.20;99.90;;;;;;5081878;28;20447;-75
2021/01/31 04:39:25;;;;;;;8.77;6.03;;;3.90;99.90;;;;;;5088888;28;20471;-75
2021/01/31 04:41:51;;;;;;;9.50;6.13;;;5.10;99.90;;;;;;5089968;28;20469;-75
2021/01/31 04:44:20;;;;;;;8.90;6.30;;;5.00;99.90;;;;;;5088892;28;20942;-75
2021/01/31 04:46:50;;;;;;;6.32;5.05;;;5.50;99.90;;;;;;5089573;28;20956;-75
2021/01/31 04:49:26;;;;;;;8.00;4.85;;;5.70;99.90;;;;;;5089372;28;20381;-76
2021/01/31 04:52:07;;;;;;;9.13;5.45;;;3.70;99.90;;;;;;5090250;28;20378;-76
2021/01/31 04:55:01;;;;;;;6.55;4.68;;;3.80;99.90;;;;;;5071604;28;20756;-76
2021/01/31 04:57:49;;;;;;;7.75;4.75;;;3.80;99.90;;;;;;5089088;28;20414;-76
2021/01/31 05:00:24;;;;;;;6.22;4.72;;;5.70;99.90;;;;;;5089183;28;20477;-75
2021/01/31 05:02:58;;;;;;;7.47;4.80;;;3.80;99.90;;;;;;5090387;28;20877;-76
2021/01/31 05:05:35;;;;;;;6.80;4.60;;;5.30;99.90;;;;;;5088565;28;20406;-76
2021/01/31 05:08:03;;;;;;;7.03;5.05;;;4.10;99.90;;;;;;5090148;28;20378;-76
2021/01/31 05:10:29;;;;;;;7.80;5.30;;;4.10;99.90;;;;;;5089931;28;20518;-75
2021/01/31 05:13:14;;;;;;;7.55;5.20;;;5.70;99.90;;;;;;5089790;28;20418;-75
2021/01/31 05:15:57;;;;;;;6.30;4.63;;;3.80;99.90;;;;;;5072208;28;20390;-75
2021/01/31 05:18:23;;;;;;;6.65;3.95;;;3.60;99.90;;;;;;5071156;28;21043;-75
2021/01/31 05:20:54;;;;;;;5.97;3.90;;;5.50;99.90;;;;;;5090081;28;20504;-75
2021/01/31 05:23:19;;;;;;;5.85;4.30;;;4.60;99.90;;;;;;5089130;28;20443;-76
2021/01/31 05:25:46;;;;;;;6.20;4.10;;;3.60;99.90;;;;;;5090122;28;20382;-76
2021/01/31 05:28:12;;;;;;;4.93;3.35;;;3.60;99.90;;;;;;5088508;28;20430;-75
2021/01/31 05:30:43;;;;;;;4.30;3.50;;;4.40;99.90;;;;;;5071447;28;20887;-76
2021/01/31 05:33:21;;;;;;;4.73;3.73;;;4.20;99.90;;;;;;5092678;28;20438;-77
2021/01/31 05:35:48;;;;;;;6.10;3.22;;;3.60;99.90;;;;;;5093216;28;20538;-75
2021/01/31 05:38:36;;;;;;;4.20;3.15;;;7.00;99.90;;;;;;5093096;28;20413;-74
2021/01/31 05:41:47;;;;;;;4.05;3.40;;;3.70;99.90;;;;;;5093442;28;20462;-75
2021/01/31 05:44:15;;;;;;;4.25;2.90;;;3.40;99.90;;;;;;5087459;28;20942;-75
2021/01/31 05:46:44;;;;;;;4.17;2.87;;;5.80;99.90;;;;;;5093040;28;20742;-75
2021/01/31 05:49:28;;;;;;;4.68;3.10;;;3.50;99.90;;;;;;5092214;28;20377;-74
2021/01/31 05:51:54;;;;;;;4.22;3.00;;;3.70;99.90;;;;;;5093495;28;20381;-74
2021/01/31 05:54:34;;;;;;;4.38;3.33;;;3.70;99.90;;;;;;5092680;28;20439;-74
2021/01/31 05:57:00;;;;;;;4.38;3.25;;;4.40;99.90;;;;;;5093139;28;20421;-74
2021/01/31 05:59:38;;;;;;;3.10;2.72;;;3.40;99.90;;;;;;5091975;28;20413;-75
2021/01/31 06:02:04;;;;;;;3.25;2.70;;;4.50;99.90;;;;;;5092772;28;20402;-74
2021/01/31 06:04:30;;;;;;;4.15;3.53;;;3.50;99.90;;;;;;5092138;28;20443;-74
2021/01/31 06:07:18;;;;;;;5.03;3.55;;;3.50;99.90;;;;;;5092852;28;20437;-76
2021/01/31 06:09:49;;;;;;;4.90;3.97;;;3.70;99.90;;;;;;5092170;28;20844;-76
2021/01/31 06:12:21;;;;;;;5.18;3.47;;;5.40;99.90;;;;;;5091746;28;20482;-76
2021/01/31 06:15:01;;;;;;;4.45;3.38;;;4.80;99.90;;;;;;5092689;28;20828;-76
2021/01/31 06:17:31;;;;;;;4.30;3.17;;;5.50;99.90;;;;;;5091945;28;20374;-76
2021/01/31 06:20:01;;;;;;;4.40;3.40;;;3.30;99.90;;;;;;5092944;28;20420;-76
2021/01/31 06:22:38;;;;;;;3.90;3.17;;;5.40;99.90;;;;;;5091861;28;20466;-76
2021/01/31 06:25:05;;;;;;;4.05;3.30;;;3.40;99.90;;;;;;5092784;28;20960;-75
2021/01/31 06:27:34;;;;;;;3.58;2.70;;;2.70;99.90;;;;;;5091473;28;20374;-75
2021/01/31 06:30:14;;;;;;;3.17;2.40;;;5.10;99.90;;;;;;5092418;28;20386;-75
2021/01/31 06:32:41;;;;;;;4.30;3.20;;;3.50;99.90;;;;;;5092554;28;20409;-75
2021/01/31 06:35:13;;;;;;;3.60;2.45;;;3.20;99.90;;;;;;5092211;28;20374;-76
2021/01/31 06:38:00;;;;;;;3.38;2.53;;;3.20;99.90;;;;;;5092465;28;20441;-75
2021/01/31 06:41:02;;;;;;;2.90;2.20;;;3.30;99.90;;;;;;5091879;28;20493;-76
2021/01/31 06:43:30;;;;;;;2.78;2.30;;;5.20;99.90;;;;;;5091321;28;20467;-76
2021/01/31 06:45:56;;;;;;;4.20;2.70;;;3.50;99.90;;;;;;5092580;28;20515;-75
2021/01/31 06:48:22;;;;;;;3.30;2.50;;;3.70;99.90;;;;;;5090508;28;20485;-76
2021/01/31 06:51:02;;;;;;;2.97;2.63;;;3.80;99.90;;;;;;5091944;28;20443;-76
2021/01/31 06:54:01;;;;;;;3.75;2.28;;;3.50;99.90;;;;;;5091303;28;20564;-75
2021/01/31 06:56:55;;;;;;;2.95;2.35;;;3.60;99.90;;;;;;5091309;28;20418;-76
2021/01/31 06:59:26;;;;;;;2.83;2.42;;;3.40;99.90;;;;;;5072793;28;20423;-76
2021/01/31 07:02:13;;;;;;;3.20;2.40;;;3.30;99.90;;;;;;5092176;28;20782;-76
2021/01/31 07:05:05;;;;;;;3.92;2.40;;;3.40;99.90;;;;;;5091690;28;20415;-76
2021/01/31 07:08:08;;;;;;;2.97;2.67;;;5.60;99.90;;;;;;5081075;28;20389;-76
2021/01/31 07:10:51;;;;;;;2.90;2.40;;;3.50;99.90;;;;;;5090334;28;20386;-75
2021/01/31 07:13:16;;;;;;;3.00;2.55;;;3.30;99.90;;;;;;5072963;28;20429;-76
2021/01/31 07:16:02;;;;;;;2.17;1.80;;;4.90;99.90;;;;;;5091874;28;20389;-75
2021/01/31 07:18:34;;;;;;;2.20;2.00;;;5.00;99.90;;;;;;5090932;28;20444;-76
2021/01/31 07:21:00;;;;;;;1.80;1.60;;;3.60;99.90;;;;;;5091931;28;20390;-75
2021/01/31 07:23:36;;;;;;;2.88;2.00;;;3.90;99.90;;;;;;5090662;28;20371;-76
2021/01/31 07:26:15;;;;;;;3.63;2.08;;;3.70;99.90;;;;;;5091531;28;20410;-76
2021/01/31 07:28:42;;;;;;;2.53;2.22;;;3.50;99.90;;;;;;5090661;28;20389;-76
2021/01/31 07:31:17;;;;;;;2.70;2.30;;;3.70;99.90;;;;;;5091125;28;20389;-76
2021/01/31 07:33:49;;;;;;;2.42;2.00;;;3.50;99.90;;;;;;5091307;28;20402;-76
2021/01/31 07:36:22;;;;;;;2.33;2.00;;;3.90;99.90;;;;;;5090393;28;20483;-77
2021/01/31 07:38:56;;;;;;;2.60;2.10;;;4.40;99.90;;;;;;5091243;28;20519;-77
2021/01/31 07:41:24;;;;;;;2.67;2.30;;;3.50;99.90;;;;;;5090776;28;20435;-76
2021/01/31 07:44:04;;;;;;;2.22;1.88;;;3.90;99.90;;;;;;5090534;28;20477;-77
2021/01/31 07:46:30;;;;;;;2.75;1.92;;;3.20;99.90;;;;;;5090832;28;20378;-76
2021/01/31 07:49:01;;;;;;;2.92;2.28;;;3.70;99.90;;;;;;5090793;28;20401;-76
2021/01/31 07:51:26;;;;;;;3.13;2.83;;;3.90;99.90;;;;;;5089996;28;20370;-76
2021/01/31 07:53:54;;;;;;;3.50;2.70;;;3.60;99.90;;;;;;5090466;28;20383;-76
2021/01/31 07:56:37;;;;;;;3.20;2.47;;;5.00;99.90;;;;;;5090451;28;20378;-77
2021/01/31 07:59:08;;;;;;;3.70;3.08;;;3.40;99.90;;;;;;5090790;28;20406;-77
2021/01/31 08:01:40;;;;;;;4.38;3.00;;;3.50;99.90;;;;;;5090034;28;20966;-76
2021/01/31 08:04:19;;;;;;;3.40;2.40;;;3.50;99.90;;;;;;5091048;28;20401;-77
2021/01/31 08:07:00;;;;;;;3.47;2.90;;;3.50;99.90;;;;;;5090895;28;20386;-76
2021/01/31 08:09:26;;;;;;;3.25;2.75;;;3.40;99.90;;;;;;5089431;28;20374;-76
2021/01/31 08:12:13;;;;;;;3.97;3.05;;;4.50;99.90;;;;;;5090798;28;20722;-76
2021/01/31 08:15:32;;;;;;;3.92;3.30;;;5.50;99.90;;;;;;5089728;28;20386;-76
2021/01/31 08:17:58;;;;;;;3.40;2.80;;;3.60;99.90;;;;;;5090735;28;20710;-76
2021/01/31 08:20:29;;;;;;;3.10;2.35;;;3.90;99.90;;;;;;5090092;28;20382;-76
2021/01/31 08:23:00;;;;;;;4.10;3.30;;;3.40;99.90;;;;;;5090866;28;20420;-76
2021/01/31 08:25:29;;;;;;;4.07;2.85;;;3.40;99.90;;;;;;5090150;28;20370;-77
2021/01/31 08:27:56;;;;;;;3.13;2.70;;;4.40;99.90;;;;;;5090134;28;20873;-76
2021/01/31 08:31:02;;;;;;;3.95;2.97;;;3.70;99.90;;;;;;5089293;28;20394;-74
2021/01/31 08:33:30;;;;;;;3.53;2.85;;;5.40;99.90;;;;;;5072515;28;20406;-76
2021/01/31 08:36:19;;;;;;;4.30;3.28;;;4.00;99.90;;;;;;5090414;28;20398;-76
2021/01/31 08:38:56;;;;;;;3.20;2.30;;;5.10;99.90;;;;;;5090607;28;20454;-76
2021/01/31 08:41:24;;;;;;;2.85;2.60;;;5.20;99.90;;;;;;5071698;28;20601;-74
2021/01/31 08:43:57;;;;;;;3.65;2.67;;;4.10;99.90;;;;;;5090447;28;20386;-76
2021/01/31 08:46:32;;;;;;;3.58;2.72;;;3.70;99.90;;;;;;5090047;28;20385;-76
2021/01/31 08:49:09;;;;;;;3.20;2.70;;;3.90;99.90;;;;;;5089987;28;20416;-77
2021/01/31 08:52:12;;;;;;;3.70;2.60;;;5.60;99.90;;;;;;5089530;28;20454;-76
2021/01/31 08:54:38;;;;;;;4.03;3.13;;;3.40;99.90;;;;;;5076361;28;20472;-75
2021/01/31 08:57:07;;;;;;;3.10;2.80;;;5.00;99.90;;;;;;5090433;28;20814;-76
2021/01/31 08:59:46;;;;;;;2.50;2.30;;;3.50;99.90;;;;;;5089542;28;20412;-76
2021/01/31 09:02:16;;;;;;;2.90;2.30;;;3.30;99.90;;;;;;5089913;28;20886;-76
2021/01/31 09:04:53;;;;;;;2.95;2.50;;;5.10;99.90;;;;;;5089819;28;20394;-76
2021/01/31 09:07:31;;;;;;;3.17;2.30;;;6.00;99.90;;;;;;5092033;28;20727;-79
2021/01/31 09:10:32;;;;;;;2.70;2.50;;;3.60;99.90;;;;;;5093187;28;20908;-75
2021/01/31 09:13:30;;;;;;;3.13;2.80;;;3.70;99.90;;;;;;5093916;28;20743;-72
2021/01/31 09:16:20;;;;;;;3.90;2.90;;;3.50;99.90;;;;;;5094412;28;20432;-75
2021/01/31 09:18:46;;;;;;;3.27;2.80;;;3.60;99.90;;;;;;5093459;28;20425;-74
2021/01/31 09:21:31;;;;;;;4.60;3.05;;;3.70;99.90;;;;;;5093867;28;20875;-75
2021/01/31 09:24:04;;;;;;;5.38;3.10;;;3.60;99.90;;;;;;5094183;28;20378;-76
2021/01/31 09:26:30;;;;;;;3.40;2.40;;;3.70;99.90;;;;;;5093546;28;20761;-76
2021/01/31 09:28:59;;;;;;;3.22;2.92;;;4.50;99.90;;;;;;5093113;28;20378;-76
2021/01/31 09:31:29;;;;;;;3.47;2.53;;;4.50;99.90;;;;;;5093027;28;20391;-76
2021/01/31 09:33:59;;;;;;;2.90;2.40;;;3.80;99.90;;;;;;5094015;28;20451;-76
2021/01/31 09:36:36;;;;;;;2.70;2.50;;;5.70;99.90;;;;;;5092219;28;20401;-76
2021/01/31 09:39:06;;;;;;;3.83;2.92;;;3.80;99.90;;;;;;5093715;28;20462;-75
2021/01/31 09:41:34;;;;;;;3.45;3.15;;;4.30;99.90;;;;;;5092726;28;20486;-76
2021/01/31 09:44:05;;;;;;;3.50;2.80;;;4.10;99.90;;;;;;5093168;28;20435;-76
2021/01/31 09:46:33;;;;;;;3.53;2.90;;;3.70;99.90;;;;;;5092970;28;20422;-76
2021/01/31 09:49:18;;;;;;;2.53;2.33;;;3.70;99.90;;;;;;5093037;28;20460;-75
2021/01/31 09:51:44;;;;;;;3.00;2.60;;;4.00;99.90;;;;;;5093187;28;20382;-76
2021/01/31 09:54:33;;;;;;;3.72;2.80;;;5.00;99.90;;;;;;5093390;28;20420;-76
2021/01/31 09:57:22;;;;;;;4.00;3.20;;;3.40;99.90;;;;;;5088253;28;20882;-76
2021/01/31 10:00:03;;;;;;;3.10;2.40;;;3.90;99.90;;;;;;5093004;28;20413;-76
2021/01/31 10:02:31;;;;;;;3.28;2.80;;;5.40;99.90;;;;;;5092435;28;20970;-76
2021/01/31 10:05:09;;;;;;;4.20;3.00;;;3.90;99.90;;;;;;5092823;28;20378;-76
2021/01/31 10:07:38;;;;;;;3.10;2.70;;;3.90;99.90;;;;;;5091831;28;20455;-76
2021/01/31 10:10:34;;;;;;;2.75;2.50;;;3.70;99.90;;;;;;5092305;28;20401;-76
2021/01/31 10:13:28;;;;;;;3.00;2.50;;;4.20;99.90;;;;;;5102192;28;20752;-77
2021/01/31 10:16:00;;;;;;;2.50;2.03;;;3.80;99.90;;;;;;5084534;28;20865;-77
2021/01/31 10:18:34;;;;;;;2.53;2.33;;;4.40;99.90;;;;;;5094025;28;20900;-78
2021/01/31 10:21:22;;;;;;;2.37;2.13;;;5.10;99.90;;;;;;5082077;28;20428;-77
2021/01/31 10:23:50;;;;;;;3.55;2.70;;;3.80;99.90;;;;;;5092681;28;20447;-77
2021/01/31 10:26:21;;;;;;;3.00;2.30;;;5.00;99.90;;;;;;5092742;28;20445;-77
2021/01/31 10:28:56;;;;;;;2.42;2.20;;;4.80;99.90;;;;;;5098188;28;20424;-77
2021/01/31 10:31:35;;;;;;;3.30;2.17;;;3.80;99.90;;;;;;5112510;28;20375;-77
2021/01/31 10:34:06;;;;;;;3.67;2.17;;;3.90;99.90;;;;;;5112648;28;20907;-77
2021/01/31 10:36:33;;;;;;;3.05;2.38;;;4.20;99.90;;;;;;5112367;28;20393;-77
2021/01/31 10:39:19;;;;;;;2.88;2.20;;;5.10;99.90;;;;;;5112994;28;20457;-78
2021/01/31 10:41:46;;;;;;;2.80;2.50;;;4.40;99.90;;;;;;5094479;28;21263;-77
2021/01/31 10:44:29;;;;;;;2.50;2.30;;;4.10;99.90;;;;;;5112934;28;20377;-77
2021/01/31 10:46:55;;;;;;;2.92;2.63;;;4.50;99.90;;;;;;5097078;28;20390;-77
2021/01/31 10:49:21;;;;;;;2.30;1.85;;;4.90;99.90;;;;;;5092483;28;20378;-77
2021/01/31 10:51:47;;;;;;;2.90;2.00;;;6.40;99.90;;;;;;5091507;28;20423;-77
2021/01/31 10:54:15;;;;;;;2.38;2.17;;;6.00;99.90;;;;;;5092120;28;20758;-77
2021/01/31 10:56:41;;;;;;;2.80;2.50;;;5.00;99.90;;;;;;5091715;28;20400;-79
2021/01/31 10:59:07;;;;;;;2.63;2.23;;;4.10;99.90;;;;;;5091521;28;20492;-80
2021/01/31 11:01:33;;;;;;;3.00;2.50;;;4.30;99.90;;;;;;5077004;28;20458;-79
2021/01/31 11:03:59;;;;;;;2.05;1.85;;;6.10;99.90;;;;;;5108416;28;20821;-80
2021/01/31 11:06:24;;;;;;;2.77;1.90;;;4.50;99.90;;;;;;5076687;28;20420;-78
2021/01/31 11:08:51;;;;;;;2.05;1.85;;;4.10;99.90;;;;;;5103665;28;20436;-79
2021/01/31 11:11:17;;;;;;;1.85;1.65;;;4.40;99.90;;;;;;5102887;28;20373;-80
2021/01/31 11:13:43;;;;;;;1.70;1.60;;;4.50;99.90;;;;;;5096912;28;20493;-81
2021/01/31 11:16:09;;;;;;;1.80;1.70;;;4.90;99.90;;;;;;5108413;28;20467;-81
2021/01/31 11:18:34;;;;;;;1.90;1.80;;;4.30;99.90;;;;;;5096138;28;20465;-80
2021/01/31 11:21:00;;;;;;;2.45;2.10;;;4.30;99.90;;;;;;5105112;28;20384;-79
2021/01/31 11:23:26;;;;;;;2.53;1.83;;;4.70;99.90;;;;;;5099499;28;20394;-80
2021/01/31 11:25:51;;;;;;;1.95;1.83;;;4.30;99.90;;;;;;5103414;28;20392;-79
2021/01/31 11:28:17;;;;;;;2.00;1.67;;;5.50;99.90;;;;;;5094425;28;20730;-79
2021/01/31 11:30:44;;;;;;;2.75;2.50;;;5.80;99.90;;;;;;5096137;28;20744;-77
2021/01/31 11:33:10;;;;;;;2.70;2.20;;;5.60;99.90;;;;;;5085834;28;20443;-76
2021/01/31 11:35:36;;;;;;;2.35;2.00;;;4.80;99.90;;;;;;5100329;28;20895;-77
2021/01/31 11:38:02;;;;;;;2.07;1.87;;;6.60;99.90;;;;;;5060592;28;20582;-77
2021/01/31 11:40:28;;;;;;;2.95;2.30;;;5.90;99.90;;;;;;5059951;28;21169;-77
2021/01/31 11:42:55;;;;;;;2.50;1.70;;;5.20;99.90;;;;;;5060656;28;20399;-77
2021/01/31 11:45:23;;;;;;;2.07;1.87;;;4.80;99.90;;;;;;5060114;28;20380;-77
2021/01/31 11:47:48;;;;;;;3.20;2.00;;;5.30;99.90;;;;;;5055667;28;20507;-78
2021/01/31 11:50:17;;;;;;;2.10;1.90;;;5.40;99.90;;;;;;5062532;28;20503;-78
2021/01/31 11:52:43;;;;;;;2.00;1.67;;;7.00;99.90;;;;;;5062708;28;20380;-79
2021/01/31 11:55:10;;;;;;;1.80;1.63;;;5.60;99.90;;;;;;5061211;28;20387;-78
2021/01/31 11:57:37;;;;;;;2.05;1.85;;;5.40;99.90;;;;;;5057880;28;21047;-77
2021/01/31 12:00:08;;;;;;;2.33;2.00;;;4.10;99.90;;;;;;5062203;28;20419;-77
2021/01/31 12:02:34;;;;;;;2.40;2.20;;;5.00;99.90;;;;;;5059234;28;20706;-77
2021/01/31 12:05:01;;;;;;;2.20;2.00;;;5.70;99.90;;;;;;5061175;28;20400;-78
2021/01/31 12:07:26;;;;;;;2.90;2.20;;;5.50;99.90;;;;;;5058709;28;20380;-77
2021/01/31 12:09:52;;;;;;;2.72;2.40;;;6.60;99.90;;;;;;5060186;28;20407;-79
2021/01/31 12:12:18;;;;;;;2.20;2.00;;;5.70;99.90;;;;;;5060623;28;21174;-78
2021/01/31 12:14:44;;;;;;;2.40;2.20;;;6.90;99.90;;;;;;5059914;28;20380;-77
2021/01/31 12:17:09;;;;;;;3.22;2.50;;;5.60;99.90;;;;;;5058476;28;20856;-76
2021/01/31 12:19:36;;;;;;;2.92;2.15;;;6.50;99.90;;;;;;5060574;28;20407;-75
2021/01/31 12:22:02;;;;;;;2.58;2.38;;;6.30;99.90;;;;;;5061623;28;20380;-76
2021/01/31 12:24:28;;;;;;;2.35;2.15;;;5.90;99.90;;;;;;5059863;28;20395;-79
2021/01/31 12:26:53;;;;;;;2.37;2.17;;;6.90;99.90;;;;;;5057397;28;20387;-79
2021/01/31 12:29:19;;;;;;;2.70;2.50;;;6.00;99.90;;;;;;5061979;28;20391;-77
2021/01/31 12:31:45;;;;;;;3.08;2.80;;;6.20;99.90;;;;;;5059690;28;20986;-76
2021/01/31 12:34:10;;;;;;;3.05;2.50;;;5.30;99.90;;;;;;5061040;28;20425;-78
2021/01/31 12:36:36;;;;;;;3.25;2.95;;;5.20;99.90;;;;;;5053682;28;20538;-78
2021/01/31 12:39:03;;;;;;;3.55;3.25;;;7.20;99.90;;;;;;5058861;28;20468;-77
2021/01/31 12:41:30;;;;;;;4.22;3.40;;;4.90;99.90;;;;;;5063400;28;20419;-78
2021/01/31 12:43:55;;;;;;;4.22;3.50;;;5.90;99.90;;;;;;5067950;28;20386;-78
2021/01/31 12:46:21;;;;;;;3.90;3.50;;;6.40;99.90;;;;;;5065892;28;20383;-76
2021/01/31 12:48:47;;;;;;;4.22;3.30;;;5.60;99.90;;;;;;5066706;28;20499;-77
2021/01/31 12:51:12;;;;;;;4.55;3.75;;;5.20;99.90;;;;;;5068263;28;20375;-77
2021/01/31 12:53:38;;;;;;;4.47;3.88;;;6.00;99.90;;;;;;5065760;28;21015;-76
2021/01/31 12:56:04;;;;;;;4.30;3.78;;;5.80;99.90;;;;;;5068002;28;20874;-78
2021/01/31 12:58:30;;;;;;;3.97;3.57;;;5.10;99.90;;;;;;5064774;28;20403;-78
2021/01/31 13:00:57;;;;;;;4.50;3.90;;;5.00;99.90;;;;;;5064813;28;20395;-77
2021/01/31 13:03:23;;;;;;;4.15;3.70;;;5.80;99.90;;;;;;5060066;28;20419;-77
2021/01/31 13:05:49;;;;;;;3.80;3.40;;;5.90;99.90;;;;;;5050058;28;20395;-77
2021/01/31 13:08:14;;;;;;;4.43;4.03;;;6.80;99.90;;;;;;5052395;28;20380;-78
2021/01/31 13:10:40;;;;;;;4.40;3.63;;;7.30;99.90;;;;;;5052153;28;20391;-77
2021/01/31 13:13:06;;;;;;;5.97;4.28;;;5.40;99.90;;;;;;5054563;28;20442;-77
2021/01/31 13:15:32;;;;;;;6.60;4.43;;;7.20;99.90;;;;;;5052467;28;20391;-77
2021/01/31 13:17:59;;;;;;;4.55;4.15;;;5.40;99.90;;;;;;5051754;28;20380;-78
2021/01/31 13:20:26;;;;;;;4.75;4.35;;;5.30;99.90;;;;;;5055509;28;20411;-79
2021/01/31 13:22:52;;;;;;;5.68;4.65;;;6.20;99.90;;;;;;5052501;28;20486;-79